Terminal Aerodrome Forecast
Issued by NWS Blacksburg, VA

Home | Current Version | Previous Version | Text Only | Print | Product List | Glossary On
Versions: 1 2 3 4 5 6 7 8 9 10 11 12 13 14 15 16 17 18 19 20 21 22 23 24 25 26 27 28 29 30 31 32 33 34
000
FTUS41 KRNK 232321
TAFBLF
TAF
KBLF 232321Z 2400/2424 23009KT P6SM BKN050
     FM240200 20011G22KT 5SM -SHRA OVC040 WS020/30035KT
      TEMPO 2402/2406 VRB25G35KT 2SM SHRA OVC025
     FM240900 27009KT P6SM SCT005 OVC020
     FM241400 28009KT P6SM BKN040
     FM241700 28012G22KT P6SM SCT045=

USA.gov is the U.S. government's official web portal to all federal, state and local government web resources and services.